<?xml version="1.0" encoding="UTF-8" standalone="no" ?>
<gpx xmlns="http://www.topografix.com/GPX/1/1" xmlns:xsi="http://www.w3.org/2001/XMLSchema-instance" xsi:schemaLocation="http://www.topografix.com/GPX/1/1 http://www.topografix.com/GPX/1/1/gpx.xsd" version="1.1" creator="VisuGPX - https://www.visugpx.com">
  <metadata>
    <name>Vouvant_MerventAutour_19-22km</name>
    <desc><![CDATA[gnerando idor:8031793_8985849_8987074_9131938]]></desc>
  </metadata>
  <trk>
    <name><![CDATA[VouvantMervent_18.8km-8987074]]></name>
    <extensions>
      <line xmlns="http://www.topografix.com/GPX/gpx_style/0/2">
        <color>FF0000</color>
        <width>4</width>
      </line>
    </extensions>
    <trkseg>
      <trkpt lat="46.57253" lon="-0.77086">
        <ele>69</ele>
        <time>2023-11-14T12:04:33Z</time>
      </trkpt>
      <trkpt lat="46.57307" lon="-0.77064">
        <ele>69</ele>
        <time>2023-11-14T12:05:48Z</time>
      </trkpt>
      <trkpt lat="46.57363" lon="-0.77083">
        <ele>64</ele>
        <time>2023-11-14T12:07:05Z</time>
      </trkpt>
      <trkpt lat="46.57391" lon="-0.77167">
        <ele>60</ele>
        <time>2023-11-14T12:08:30Z</time>
      </trkpt>
      <trkpt lat="46.57336" lon="-0.77213">
        <ele>62</ele>
        <time>2023-11-14T12:09:55Z</time>
      </trkpt>
      <trkpt lat="46.57265" lon="-0.77155">
        <ele>62</ele>
        <time>2023-11-14T12:11:44Z</time>
      </trkpt>
      <trkpt lat="46.57235" lon="-0.77151">
        <ele>61</ele>
        <time>2023-11-14T12:12:24Z</time>
      </trkpt>
      <trkpt lat="46.57207" lon="-0.77168">
        <ele>58</ele>
        <time>2023-11-14T12:13:04Z</time>
      </trkpt>
      <trkpt lat="46.5714" lon="-0.77136">
        <ele>59</ele>
        <time>2023-11-14T12:14:38Z</time>
      </trkpt>
      <trkpt lat="46.57125" lon="-0.77124">
        <ele>59</ele>
        <time>2023-11-14T12:15:01Z</time>
      </trkpt>
      <trkpt lat="46.571" lon="-0.7713">
        <ele>57</ele>
        <time>2023-11-14T12:15:35Z</time>
      </trkpt>
      <trkpt lat="46.57047" lon="-0.77125">
        <ele>56</ele>
        <time>2023-11-14T12:16:46Z</time>
      </trkpt>
      <trkpt lat="46.56983" lon="-0.77079">
        <ele>54</ele>
        <time>2023-11-14T12:18:21Z</time>
      </trkpt>
      <trkpt lat="46.56968" lon="-0.76965">
        <ele>55</ele>
        <time>2023-11-14T12:20:08Z</time>
      </trkpt>
      <trkpt lat="46.57039" lon="-0.76723">
        <ele>57</ele>
        <time>2023-11-14T12:24:09Z</time>
      </trkpt>
      <trkpt lat="46.57104" lon="-0.7666">
        <ele>53</ele>
        <time>2023-11-14T12:25:53Z</time>
      </trkpt>
      <trkpt lat="46.57145" lon="-0.76688">
        <ele>53</ele>
        <time>2023-11-14T12:26:54Z</time>
      </trkpt>
      <trkpt lat="46.57174" lon="-0.76627">
        <ele>54</ele>
        <time>2023-11-14T12:28:02Z</time>
      </trkpt>
      <trkpt lat="46.5704" lon="-0.76493">
        <ele>75</ele>
        <time>2023-11-14T12:31:39Z</time>
      </trkpt>
      <trkpt lat="46.56941" lon="-0.76577">
        <ele>76</ele>
        <time>2023-11-14T12:34:12Z</time>
      </trkpt>
      <trkpt lat="46.56789" lon="-0.76686">
        <ele>80</ele>
        <time>2023-11-14T12:37:58Z</time>
      </trkpt>
      <trkpt lat="46.5666" lon="-0.76675">
        <ele>77</ele>
        <time>2023-11-14T12:40:50Z</time>
      </trkpt>
      <trkpt lat="46.56598" lon="-0.76746">
        <ele>76</ele>
        <time>2023-11-14T12:42:36Z</time>
      </trkpt>
      <trkpt lat="46.56468" lon="-0.76794">
        <ele>76</ele>
        <time>2023-11-14T12:45:35Z</time>
      </trkpt>
      <trkpt lat="46.56285" lon="-0.76683">
        <ele>79</ele>
        <time>2023-11-14T12:49:59Z</time>
      </trkpt>
      <trkpt lat="46.56111" lon="-0.76592">
        <ele>77</ele>
        <time>2023-11-14T12:54:06Z</time>
      </trkpt>
      <trkpt lat="46.55958" lon="-0.76635">
        <ele>77</ele>
        <time>2023-11-14T12:57:34Z</time>
      </trkpt>
      <trkpt lat="46.55987" lon="-0.76425">
        <ele>80</ele>
        <time>2023-11-14T13:00:50Z</time>
      </trkpt>
      <trkpt lat="46.55952" lon="-0.76253">
        <ele>82</ele>
        <time>2023-11-14T13:03:35Z</time>
      </trkpt>
      <trkpt lat="46.56028" lon="-0.76012">
        <ele>86</ele>
        <time>2023-11-14T13:07:38Z</time>
      </trkpt>
      <trkpt lat="46.56085" lon="-0.75863">
        <ele>89</ele>
        <time>2023-11-14T13:10:15Z</time>
      </trkpt>
      <trkpt lat="46.55896" lon="-0.75708">
        <ele>88</ele>
        <time>2023-11-14T13:15:04Z</time>
      </trkpt>
      <trkpt lat="46.55949" lon="-0.75515">
        <ele>88</ele>
        <time>2023-11-14T13:18:15Z</time>
      </trkpt>
      <trkpt lat="46.55698" lon="-0.75455">
        <ele>79</ele>
        <time>2023-11-14T13:23:54Z</time>
      </trkpt>
      <trkpt lat="46.55539" lon="-0.75296">
        <ele>81</ele>
        <time>2023-11-14T13:28:12Z</time>
      </trkpt>
      <trkpt lat="46.55285" lon="-0.75331">
        <ele>79</ele>
        <time>2023-11-14T13:33:52Z</time>
      </trkpt>
      <trkpt lat="46.55111" lon="-0.75232">
        <ele>77</ele>
        <time>2023-11-14T13:38:02Z</time>
      </trkpt>
      <trkpt lat="46.54688" lon="-0.7518">
        <ele>63</ele>
        <time>2023-11-14T13:47:28Z</time>
      </trkpt>
      <trkpt lat="46.544" lon="-0.75541">
        <ele>65</ele>
        <time>2023-11-14T13:55:56Z</time>
      </trkpt>
      <trkpt lat="46.54231" lon="-0.75613">
        <ele>65</ele>
        <time>2023-11-14T13:59:51Z</time>
      </trkpt>
      <trkpt lat="46.54052" lon="-0.75859">
        <ele>70</ele>
        <time>2023-11-14T14:05:19Z</time>
      </trkpt>
      <trkpt lat="46.53797" lon="-0.7591">
        <ele>59</ele>
        <time>2023-11-14T14:11:03Z</time>
      </trkpt>
      <trkpt lat="46.53639" lon="-0.76024">
        <ele>56</ele>
        <time>2023-11-14T14:14:58Z</time>
      </trkpt>
      <trkpt lat="46.53589" lon="-0.76109">
        <ele>49</ele>
        <time>2023-11-14T14:16:41Z</time>
      </trkpt>
      <trkpt lat="46.53496" lon="-0.76107">
        <ele>48</ele>
        <time>2023-11-14T14:18:45Z</time>
      </trkpt>
      <trkpt lat="46.53396" lon="-0.76061">
        <ele>49</ele>
        <time>2023-11-14T14:21:05Z</time>
      </trkpt>
      <trkpt lat="46.53247" lon="-0.76209">
        <ele>57</ele>
        <time>2023-11-14T14:25:06Z</time>
      </trkpt>
      <trkpt lat="46.53173" lon="-0.76241">
        <ele>67</ele>
        <time>2023-11-14T14:26:49Z</time>
      </trkpt>
      <trkpt lat="46.5309" lon="-0.76096">
        <ele>48</ele>
        <time>2023-11-14T14:29:42Z</time>
      </trkpt>
      <trkpt lat="46.52989" lon="-0.76129">
        <ele>51</ele>
        <time>2023-11-14T14:32:00Z</time>
      </trkpt>
      <trkpt lat="46.52907" lon="-0.7614">
        <ele>45</ele>
        <time>2023-11-14T14:33:50Z</time>
      </trkpt>
      <trkpt lat="46.52951" lon="-0.76244">
        <ele>55</ele>
        <time>2023-11-14T14:35:42Z</time>
      </trkpt>
      <trkpt lat="46.52948" lon="-0.76375">
        <ele>61</ele>
        <time>2023-11-14T14:37:42Z</time>
      </trkpt>
      <trkpt lat="46.52867" lon="-0.76553">
        <ele>58</ele>
        <time>2023-11-14T14:40:58Z</time>
      </trkpt>
      <trkpt lat="46.52722" lon="-0.76717">
        <ele>50</ele>
        <time>2023-11-14T14:45:04Z</time>
      </trkpt>
      <trkpt lat="46.52689" lon="-0.76769">
        <ele>48</ele>
        <time>2023-11-14T14:46:08Z</time>
      </trkpt>
      <trkpt lat="46.52696" lon="-0.76805">
        <ele>48</ele>
        <time>2023-11-14T14:46:43Z</time>
      </trkpt>
      <trkpt lat="46.52732" lon="-0.76812">
        <ele>51</ele>
        <time>2023-11-14T14:47:31Z</time>
      </trkpt>
      <trkpt lat="46.52794" lon="-0.76781">
        <ele>53</ele>
        <time>2023-11-14T14:48:59Z</time>
      </trkpt>
      <trkpt lat="46.52822" lon="-0.76721">
        <ele>58</ele>
        <time>2023-11-14T14:50:05Z</time>
      </trkpt>
      <trkpt lat="46.52931" lon="-0.76689">
        <ele>73</ele>
        <time>2023-11-14T14:52:34Z</time>
      </trkpt>
      <trkpt lat="46.52962" lon="-0.76595">
        <ele>84</ele>
        <time>2023-11-14T14:54:09Z</time>
      </trkpt>
      <trkpt lat="46.53002" lon="-0.7655">
        <ele>93</ele>
        <time>2023-11-14T14:55:17Z</time>
      </trkpt>
      <trkpt lat="46.5307" lon="-0.76629">
        <ele>89</ele>
        <time>2023-11-14T14:57:13Z</time>
      </trkpt>
      <trkpt lat="46.53168" lon="-0.76697">
        <ele>85</ele>
        <time>2023-11-14T14:59:38Z</time>
      </trkpt>
      <trkpt lat="46.53089" lon="-0.76898">
        <ele>69</ele>
        <time>2023-11-14T15:03:11Z</time>
      </trkpt>
      <trkpt lat="46.53014" lon="-0.76933">
        <ele>48</ele>
        <time>2023-11-14T15:04:56Z</time>
      </trkpt>
      <trkpt lat="46.5305" lon="-0.77194">
        <ele>51</ele>
        <time>2023-11-14T15:09:00Z</time>
      </trkpt>
      <trkpt lat="46.53273" lon="-0.77215">
        <ele>63</ele>
        <time>2023-11-14T15:13:58Z</time>
      </trkpt>
      <trkpt lat="46.53377" lon="-0.77353">
        <ele>51</ele>
        <time>2023-11-14T15:17:06Z</time>
      </trkpt>
      <trkpt lat="46.53316" lon="-0.77424">
        <ele>54</ele>
        <time>2023-11-14T15:18:50Z</time>
      </trkpt>
      <trkpt lat="46.53274" lon="-0.77541">
        <ele>63</ele>
        <time>2023-11-14T15:20:52Z</time>
      </trkpt>
      <trkpt lat="46.5325" lon="-0.77522">
        <ele>60</ele>
        <time>2023-11-14T15:21:28Z</time>
      </trkpt>
      <trkpt lat="46.53279" lon="-0.77392">
        <ele>55</ele>
        <time>2023-11-14T15:23:34Z</time>
      </trkpt>
      <trkpt lat="46.53259" lon="-0.77381">
        <ele>56</ele>
        <time>2023-11-14T15:24:02Z</time>
      </trkpt>
      <trkpt lat="46.53202" lon="-0.7746">
        <ele>69</ele>
        <time>2023-11-14T15:25:47Z</time>
      </trkpt>
      <trkpt lat="46.53151" lon="-0.77475">
        <ele>77</ele>
        <time>2023-11-14T15:26:57Z</time>
      </trkpt>
      <trkpt lat="46.53107" lon="-0.77536">
        <ele>84</ele>
        <time>2023-11-14T15:28:18Z</time>
      </trkpt>
      <trkpt lat="46.52954" lon="-0.77763">
        <ele>95</ele>
        <time>2023-11-14T15:33:10Z</time>
      </trkpt>
      <trkpt lat="46.52972" lon="-0.77886">
        <ele>89</ele>
        <time>2023-11-14T15:35:05Z</time>
      </trkpt>
      <trkpt lat="46.52955" lon="-0.78063">
        <ele>88</ele>
        <time>2023-11-14T15:37:49Z</time>
      </trkpt>
      <trkpt lat="46.52968" lon="-0.78099">
        <ele>88</ele>
        <time>2023-11-14T15:38:26Z</time>
      </trkpt>
      <trkpt lat="46.5302" lon="-0.78225">
        <ele>92</ele>
        <time>2023-11-14T15:40:41Z</time>
      </trkpt>
      <trkpt lat="46.53063" lon="-0.78395">
        <ele>91</ele>
        <time>2023-11-14T15:43:28Z</time>
      </trkpt>
      <trkpt lat="46.53148" lon="-0.78523">
        <ele>95</ele>
        <time>2023-11-14T15:46:11Z</time>
      </trkpt>
      <trkpt lat="46.53074" lon="-0.78566">
        <ele>97</ele>
        <time>2023-11-14T15:47:57Z</time>
      </trkpt>
      <trkpt lat="46.53042" lon="-0.78549">
        <ele>97</ele>
        <time>2023-11-14T15:48:43Z</time>
      </trkpt>
      <trkpt lat="46.52939" lon="-0.78583">
        <ele>102</ele>
        <time>2023-11-14T15:51:04Z</time>
      </trkpt>
      <trkpt lat="46.53083" lon="-0.79153">
        <ele>115</ele>
        <time>2023-11-14T16:00:21Z</time>
      </trkpt>
      <trkpt lat="46.53313" lon="-0.79063">
        <ele>108</ele>
        <time>2023-11-14T16:05:39Z</time>
      </trkpt>
      <trkpt lat="46.53903" lon="-0.79106">
        <ele>113</ele>
        <time>2023-11-14T16:18:47Z</time>
      </trkpt>
      <trkpt lat="46.54281" lon="-0.78645">
        <ele>104</ele>
        <time>2023-11-14T16:29:46Z</time>
      </trkpt>
      <trkpt lat="46.54474" lon="-0.78637">
        <ele>83</ele>
        <time>2023-11-14T16:34:03Z</time>
      </trkpt>
      <trkpt lat="46.54569" lon="-0.78392">
        <ele>59</ele>
        <time>2023-11-14T16:38:21Z</time>
      </trkpt>
      <trkpt lat="46.54415" lon="-0.78349">
        <ele>65</ele>
        <time>2023-11-14T16:41:51Z</time>
      </trkpt>
      <trkpt lat="46.54286" lon="-0.78262">
        <ele>71</ele>
        <time>2023-11-14T16:45:01Z</time>
      </trkpt>
      <trkpt lat="46.54286" lon="-0.78096">
        <ele>64</ele>
        <time>2023-11-14T16:47:33Z</time>
      </trkpt>
      <trkpt lat="46.54425" lon="-0.78125">
        <ele>55</ele>
        <time>2023-11-14T16:50:40Z</time>
      </trkpt>
      <trkpt lat="46.54442" lon="-0.78202">
        <ele>53</ele>
        <time>2023-11-14T16:51:54Z</time>
      </trkpt>
      <trkpt lat="46.54515" lon="-0.78218">
        <ele>54</ele>
        <time>2023-11-14T16:53:33Z</time>
      </trkpt>
      <trkpt lat="46.54612" lon="-0.78159">
        <ele>53</ele>
        <time>2023-11-14T16:55:53Z</time>
      </trkpt>
      <trkpt lat="46.54544" lon="-0.77916">
        <ele>78</ele>
        <time>2023-11-14T16:59:54Z</time>
      </trkpt>
      <trkpt lat="46.54628" lon="-0.77738">
        <ele>85</ele>
        <time>2023-11-14T17:03:12Z</time>
      </trkpt>
      <trkpt lat="46.54657" lon="-0.77565">
        <ele>90</ele>
        <time>2023-11-14T17:05:56Z</time>
      </trkpt>
      <trkpt lat="46.54654" lon="-0.7751">
        <ele>90</ele>
        <time>2023-11-14T17:06:46Z</time>
      </trkpt>
      <trkpt lat="46.54631" lon="-0.77415">
        <ele>91</ele>
        <time>2023-11-14T17:08:19Z</time>
      </trkpt>
      <trkpt lat="46.54627" lon="-0.77342">
        <ele>91</ele>
        <time>2023-11-14T17:09:26Z</time>
      </trkpt>
      <trkpt lat="46.54598" lon="-0.77248">
        <ele>88</ele>
        <time>2023-11-14T17:11:01Z</time>
      </trkpt>
      <trkpt lat="46.55119" lon="-0.77421">
        <ele>72</ele>
        <time>2023-11-14T17:22:54Z</time>
      </trkpt>
      <trkpt lat="46.55291" lon="-0.77224">
        <ele>75</ele>
        <time>2023-11-14T17:27:46Z</time>
      </trkpt>
      <trkpt lat="46.55395" lon="-0.77218">
        <ele>73</ele>
        <time>2023-11-14T17:30:05Z</time>
      </trkpt>
      <trkpt lat="46.55506" lon="-0.77119">
        <ele>66</ele>
        <time>2023-11-14T17:32:58Z</time>
      </trkpt>
      <trkpt lat="46.55566" lon="-0.77013">
        <ele>65</ele>
        <time>2023-11-14T17:35:04Z</time>
      </trkpt>
      <trkpt lat="46.55581" lon="-0.77013">
        <ele>64</ele>
        <time>2023-11-14T17:35:25Z</time>
      </trkpt>
      <trkpt lat="46.55647" lon="-0.7702">
        <ele>65</ele>
        <time>2023-11-14T17:36:53Z</time>
      </trkpt>
      <trkpt lat="46.55765" lon="-0.77095">
        <ele>68</ele>
        <time>2023-11-14T17:39:45Z</time>
      </trkpt>
      <trkpt lat="46.55839" lon="-0.7711">
        <ele>69</ele>
        <time>2023-11-14T17:41:24Z</time>
      </trkpt>
      <trkpt lat="46.56043" lon="-0.77193">
        <ele>67</ele>
        <time>2023-11-14T17:46:07Z</time>
      </trkpt>
      <trkpt lat="46.56189" lon="-0.77289">
        <ele>65</ele>
        <time>2023-11-14T17:49:41Z</time>
      </trkpt>
      <trkpt lat="46.56335" lon="-0.77317">
        <ele>63</ele>
        <time>2023-11-14T17:52:57Z</time>
      </trkpt>
      <trkpt lat="46.56524" lon="-0.77252">
        <ele>69</ele>
        <time>2023-11-14T17:57:17Z</time>
      </trkpt>
      <trkpt lat="46.56632" lon="-0.77264">
        <ele>71</ele>
        <time>2023-11-14T17:59:41Z</time>
      </trkpt>
      <trkpt lat="46.56723" lon="-0.77244">
        <ele>72</ele>
        <time>2023-11-14T18:01:44Z</time>
      </trkpt>
      <trkpt lat="46.56792" lon="-0.77381">
        <ele>73</ele>
        <time>2023-11-14T18:04:20Z</time>
      </trkpt>
      <trkpt lat="46.56906" lon="-0.77468">
        <ele>72</ele>
        <time>2023-11-14T18:07:12Z</time>
      </trkpt>
      <trkpt lat="46.56966" lon="-0.77273">
        <ele>60</ele>
        <time>2023-11-14T18:10:28Z</time>
      </trkpt>
      <trkpt lat="46.57122" lon="-0.77218">
        <ele>56</ele>
        <time>2023-11-14T18:14:02Z</time>
      </trkpt>
      <trkpt lat="46.57107" lon="-0.77135">
        <ele>57</ele>
        <time>2023-11-14T18:15:20Z</time>
      </trkpt>
      <trkpt lat="46.57074" lon="-0.77086">
        <ele>59</ele>
        <time>2023-11-14T18:16:23Z</time>
      </trkpt>
      <trkpt lat="46.57069" lon="-0.77053">
        <ele>61</ele>
        <time>2023-11-14T18:16:54Z</time>
      </trkpt>
      <trkpt lat="46.57131" lon="-0.7706">
        <ele>65</ele>
        <time>2023-11-14T18:18:17Z</time>
      </trkpt>
      <trkpt lat="46.57166" lon="-0.77053">
        <ele>68</ele>
        <time>2023-11-14T18:19:05Z</time>
      </trkpt>
      <trkpt lat="46.57175" lon="-0.77028">
        <ele>70</ele>
        <time>2023-11-14T18:19:30Z</time>
      </trkpt>
      <trkpt lat="46.57249" lon="-0.77095">
        <ele>68</ele>
        <time>2023-11-14T18:21:27Z</time>
      </trkpt>
      <trkpt lat="46.5726" lon="-0.7707">
        <ele>69</ele>
        <time>2023-11-14T18:21:54Z</time>
      </trkpt>
    </trkseg>
  </trk>
</gpx>